createdAt,value
2017-06-12T00:01:13.482Z,18.60
2017-06-12T00:03:41.602Z,18.50
2017-06-12T00:06:09.749Z,18.40
2017-06-12T00:08:37.885Z,18.30
2017-06-12T00:11:06.023Z,18.30
2017-06-12T00:13:34.146Z,18.30
2017-06-12T00:16:02.288Z,18.20
2017-06-12T00:18:30.374Z,18.10
2017-06-12T00:20:58.482Z,18.00
2017-06-12T00:23:26.593Z,18.00
2017-06-12T00:25:54.712Z,17.90
2017-06-12T00:28:22.817Z,17.90
2017-06-12T00:30:50.960Z,17.90
2017-06-12T00:33:19.093Z,17.90
2017-06-12T00:35:47.202Z,18.00
2017-06-12T00:38:15.326Z,18.00
2017-06-12T00:40:43.451Z,18.00
2017-06-12T00:43:11.559Z,18.00
2017-06-12T00:45:39.666Z,18.00
2017-06-12T00:48:07.758Z,18.00
2017-06-12T00:50:35.890Z,18.00
2017-06-12T00:53:04.002Z,17.90
2017-06-12T00:55:32.134Z,18.00
2017-06-12T00:58:00.250Z,18.00
2017-06-12T01:00:28.401Z,18.00
2017-06-12T01:02:56.515Z,17.90
2017-06-12T01:11:19.194Z,17.80
2017-06-12T01:13:47.518Z,17.70
2017-06-12T01:16:16.913Z,17.60
2017-06-12T01:18:45.037Z,17.50
2017-06-12T01:21:13.154Z,17.50
2017-06-12T01:23:41.249Z,17.40
2017-06-12T01:26:09.374Z,17.40
2017-06-12T01:28:37.483Z,17.40
2017-06-12T01:31:05.594Z,17.40
2017-06-12T01:33:33.696Z,17.30
2017-06-12T01:36:01.809Z,17.30
2017-06-12T01:38:29.939Z,17.20
2017-06-12T01:40:58.058Z,17.20
2017-06-12T01:43:26.145Z,17.30
2017-06-12T01:45:54.277Z,17.30
2017-06-12T01:48:22.395Z,17.30
2017-06-12T01:50:50.525Z,17.40
2017-06-12T01:53:18.629Z,17.40
2017-06-12T01:55:46.749Z,17.40
2017-06-12T01:58:14.851Z,17.40
2017-06-12T02:00:42.994Z,17.30
2017-06-12T02:03:11.099Z,17.20
2017-06-12T02:05:39.201Z,17.10
2017-06-12T02:08:07.302Z,17.10
2017-06-12T02:10:35.390Z,17.10
2017-06-12T02:13:03.519Z,17.10
2017-06-12T02:15:31.622Z,17.10
2017-06-12T02:17:59.778Z,17.10
2017-06-12T02:20:27.894Z,17.20
2017-06-12T02:22:56.012Z,17.20
2017-06-12T02:25:24.130Z,17.20
2017-06-12T02:27:52.234Z,17.20
2017-06-12T02:30:20.358Z,17.10
2017-06-12T02:32:48.463Z,17.00
2017-06-12T02:35:16.581Z,17.00
2017-06-12T02:37:44.710Z,17.00
2017-06-12T02:40:12.880Z,17.10
2017-06-12T02:42:42.958Z,17.20
2017-06-12T02:45:11.074Z,17.20
2017-06-12T02:47:39.183Z,17.20
2017-06-12T02:50:08.191Z,17.10
2017-06-12T02:52:36.307Z,17.10
2017-06-12T02:55:04.411Z,17.10
2017-06-12T02:57:32.546Z,17.00
2017-06-12T03:00:01.315Z,16.90
2017-06-12T03:02:29.425Z,16.80
2017-06-12T03:04:57.534Z,16.70
2017-06-12T03:07:25.663Z,16.70
2017-06-12T03:09:53.812Z,16.70
2017-06-12T03:12:21.907Z,16.60
2017-06-12T03:14:50.005Z,16.50
2017-06-12T03:17:18.107Z,16.50
2017-06-12T03:19:46.229Z,16.50
2017-06-12T03:22:14.325Z,16.50
2017-06-12T03:24:42.424Z,16.40
2017-06-12T03:27:10.534Z,16.40
2017-06-12T03:29:38.621Z,16.40
2017-06-12T03:32:06.737Z,16.40
2017-06-12T03:34:34.837Z,16.40
2017-06-12T03:37:02.958Z,16.60
2017-06-12T03:39:31.055Z,16.60
2017-06-12T03:41:59.152Z,16.70
2017-06-12T03:44:27.269Z,16.90
2017-06-12T03:46:55.438Z,17.00
2017-06-12T03:49:27.977Z,17.10
2017-06-12T03:51:56.100Z,17.30
2017-06-12T03:54:24.234Z,17.60
2017-06-12T03:56:52.336Z,17.80
2017-06-12T03:59:33.934Z,17.40
2017-06-12T04:02:02.042Z,17.20
2017-06-12T04:04:30.767Z,16.80
2017-06-12T04:06:58.894Z,16.80
2017-06-12T04:09:26.986Z,16.50
2017-06-12T04:11:55.133Z,16.50
2017-06-12T04:14:23.244Z,16.70
2017-06-12T04:16:51.374Z,17.10
2017-06-12T04:19:19.500Z,17.10
2017-06-12T04:21:47.627Z,16.80
2017-06-12T04:24:15.755Z,16.60
2017-06-12T04:26:43.864Z,16.90
2017-06-12T04:29:11.982Z,16.90
2017-06-12T04:31:40.098Z,17.50
2017-06-12T04:34:08.999Z,18.20
2017-06-12T04:36:37.138Z,18.00
2017-06-12T04:39:05.269Z,17.30
2017-06-12T04:41:33.383Z,16.90
2017-06-12T04:44:01.496Z,16.70
2017-06-12T04:46:29.611Z,16.50
2017-06-12T04:48:57.721Z,16.40
2017-06-12T04:51:25.863Z,16.30
2017-06-12T04:53:53.966Z,16.40
2017-06-12T04:56:22.076Z,16.60
2017-06-12T04:58:50.902Z,18.10
2017-06-12T05:01:19.065Z,18.60
2017-06-12T05:03:47.195Z,18.50
2017-06-12T05:06:15.321Z,17.80
2017-06-12T05:08:43.448Z,17.00
2017-06-12T05:11:11.586Z,17.50
2017-06-12T05:13:39.707Z,19.00
2017-06-12T05:16:07.965Z,19.90
2017-06-12T05:18:36.051Z,19.00
2017-06-12T05:21:04.748Z,18.30
2017-06-12T05:23:32.887Z,17.90
2017-06-12T05:26:00.997Z,17.80
2017-06-12T05:28:29.321Z,17.80
2017-06-12T05:30:57.409Z,17.60
2017-06-12T05:33:25.577Z,17.40
2017-06-12T05:35:53.703Z,17.20
2017-06-12T05:38:21.856Z,17.20
2017-06-12T05:40:49.958Z,17.10
2017-06-12T05:43:18.073Z,17.00
2017-06-12T05:45:46.187Z,16.90
2017-06-12T05:48:14.348Z,16.90
2017-06-12T05:50:42.457Z,16.90
2017-06-12T05:53:10.582Z,16.90
2017-06-12T05:55:38.675Z,16.80
2017-06-12T05:58:06.822Z,16.70
2017-06-12T06:00:34.979Z,16.60
2017-06-12T06:03:03.082Z,16.70
2017-06-12T06:05:31.209Z,17.10
2017-06-12T06:08:00.137Z,17.50
2017-06-12T06:10:28.297Z,17.50
2017-06-12T06:12:56.420Z,17.50
2017-06-12T06:15:24.524Z,17.40
2017-06-12T06:17:52.740Z,17.40
2017-06-12T06:20:20.850Z,17.40
2017-06-12T06:22:48.957Z,17.10
2017-06-12T06:25:17.094Z,17.00
2017-06-12T06:27:45.236Z,17.10
2017-06-12T06:30:13.383Z,17.50
2017-06-12T06:32:41.491Z,17.60
2017-06-12T06:35:09.645Z,17.50
2017-06-12T06:37:38.761Z,17.30
2017-06-12T06:40:06.927Z,17.20
2017-06-12T06:42:35.127Z,17.30
2017-06-12T06:45:03.366Z,17.30
2017-06-12T06:47:31.489Z,17.30
2017-06-12T06:49:59.596Z,17.30
2017-06-12T06:52:27.744Z,17.20
2017-06-12T06:54:55.856Z,17.20
2017-06-12T06:57:23.967Z,17.30
2017-06-12T06:59:52.102Z,17.40
2017-06-12T07:05:20.549Z,17.80
2017-06-12T07:07:49.159Z,17.70
2017-06-12T07:10:17.402Z,17.70
2017-06-12T07:12:45.488Z,17.70
2017-06-12T07:15:14.596Z,17.90
2017-06-12T07:17:42.719Z,18.00
2017-06-12T07:20:11.354Z,18.30
2017-06-12T07:22:40.284Z,18.30
2017-06-12T07:25:08.863Z,18.30
2017-06-12T07:27:36.972Z,18.30
2017-06-12T07:30:05.113Z,18.30
2017-06-12T07:32:33.286Z,18.10
2017-06-12T07:35:01.447Z,17.90
2017-06-12T07:37:29.623Z,17.70
2017-06-12T07:39:57.736Z,17.60
2017-06-12T07:42:26.666Z,17.60
2017-06-12T07:44:54.799Z,17.60
2017-06-12T07:47:22.930Z,17.80
2017-06-12T07:49:51.041Z,18.30
2017-06-12T07:52:19.177Z,18.40
2017-06-12T07:54:47.302Z,18.50
2017-06-12T07:57:15.513Z,18.70
2017-06-12T07:59:43.686Z,18.80
2017-06-12T08:02:11.812Z,18.90
2017-06-12T08:04:39.965Z,19.00
2017-06-12T08:07:08.521Z,18.90
2017-06-12T08:09:37.265Z,18.60
2017-06-12T08:12:05.934Z,18.30
2017-06-12T08:14:34.068Z,18.10
2017-06-12T08:17:04.093Z,18.00
2017-06-12T08:19:32.231Z,18.10
2017-06-12T08:22:00.990Z,18.00
2017-06-12T08:24:29.111Z,17.80
2017-06-12T08:26:57.231Z,17.70
2017-06-12T08:29:25.593Z,17.70
2017-06-12T08:31:53.693Z,17.90
2017-06-12T08:34:21.830Z,18.40
2017-06-12T08:36:49.950Z,18.90
2017-06-12T08:39:18.167Z,19.30
2017-06-12T08:41:46.308Z,19.30
2017-06-12T08:44:14.433Z,19.30
2017-06-12T08:46:42.535Z,19.30
2017-06-12T08:49:10.979Z,19.30
2017-06-12T08:51:39.080Z,19.20
2017-06-12T08:54:07.352Z,19.20
2017-06-12T08:56:35.472Z,19.30
2017-06-12T08:59:03.624Z,19.00
2017-06-12T09:01:31.749Z,18.80
2017-06-12T09:03:59.871Z,18.60
2017-06-12T09:06:28.063Z,18.60
2017-06-12T09:08:56.166Z,18.70
2017-06-12T09:11:24.295Z,18.80
2017-06-12T09:13:52.408Z,18.90
2017-06-12T09:16:20.562Z,19.00
2017-06-12T09:18:48.742Z,19.20
2017-06-12T09:21:16.912Z,19.30
2017-06-12T09:23:45.040Z,19.60
2017-06-12T09:26:13.148Z,19.80
2017-06-12T09:28:41.327Z,20.10
2017-06-12T09:31:09.714Z,20.00
2017-06-12T09:33:37.903Z,19.60
2017-06-12T09:36:06.027Z,19.50
2017-06-12T09:38:36.011Z,19.40
2017-06-12T09:41:04.346Z,19.20
2017-06-12T09:43:32.466Z,19.20
2017-06-12T09:46:00.625Z,19.50
2017-06-12T09:48:28.755Z,19.60
2017-06-12T09:50:56.875Z,19.80
2017-06-12T09:53:25.072Z,19.80
2017-06-12T09:55:53.186Z,19.60
2017-06-12T09:58:21.379Z,19.60
2017-06-12T10:00:49.551Z,19.90
2017-06-12T10:03:17.690Z,20.10
2017-06-12T10:05:45.833Z,19.60
2017-06-12T10:08:13.987Z,19.00
2017-06-12T10:10:42.138Z,18.70
2017-06-12T10:13:10.278Z,18.40
2017-06-12T10:15:38.454Z,18.50
2017-06-12T10:18:06.621Z,18.80
2017-06-12T10:20:34.757Z,18.80
2017-06-12T10:23:02.963Z,18.40
2017-06-12T10:25:31.111Z,18.20
2017-06-12T10:28:00.137Z,18.60
2017-06-12T10:30:28.271Z,18.90
2017-06-12T10:32:56.455Z,19.20
2017-06-12T10:35:24.570Z,19.20
2017-06-12T10:37:52.698Z,19.30
2017-06-12T10:40:20.811Z,19.40
2017-06-12T10:42:48.949Z,19.50
2017-06-12T10:45:17.084Z,19.60
2017-06-12T10:50:34.096Z,19.80
2017-06-12T10:53:02.214Z,20.10
2017-06-12T10:55:30.367Z,20.10
2017-06-12T10:57:58.592Z,20.00
2017-06-12T11:00:26.934Z,19.80
2017-06-12T11:02:55.039Z,19.90
2017-06-12T11:05:23.179Z,20.00
2017-06-12T11:07:51.395Z,20.00
2017-06-12T11:10:19.519Z,19.70
2017-06-12T11:12:48.496Z,19.30
2017-06-12T11:15:16.622Z,18.90
2017-06-12T11:17:44.767Z,18.30
2017-06-12T11:20:12.922Z,18.00
2017-06-12T11:22:41.128Z,17.90
2017-06-12T11:25:09.975Z,17.90
2017-06-12T11:27:38.114Z,18.00
2017-06-12T11:30:07.058Z,18.10
2017-06-12T11:32:35.911Z,18.30
2017-06-12T11:35:07.802Z,18.40
2017-06-12T11:37:48.357Z,18.50
2017-06-12T11:40:36.616Z,18.40
2017-06-12T11:43:08.783Z,18.30
2017-06-12T11:45:37.865Z,18.50
2017-06-12T11:48:06.023Z,18.70
2017-06-12T11:50:34.204Z,19.00
2017-06-12T11:53:02.364Z,19.10
2017-06-12T11:55:30.532Z,19.20
2017-06-12T11:57:59.033Z,19.50
2017-06-12T12:00:27.213Z,19.40
2017-06-12T12:02:56.244Z,19.40
2017-06-12T12:05:24.392Z,19.40
2017-06-12T12:07:52.687Z,19.40
2017-06-12T12:10:20.967Z,19.40
2017-06-12T12:12:49.437Z,19.60
2017-06-12T12:15:17.577Z,19.70
2017-06-12T12:17:45.743Z,19.80
2017-06-12T12:20:13.909Z,19.80
2017-06-12T12:22:42.078Z,19.70
2017-06-12T12:25:10.198Z,19.70
2017-06-12T12:27:38.387Z,19.40
2017-06-12T12:30:06.514Z,19.20
2017-06-12T12:32:34.653Z,19.40
2017-06-12T12:35:02.970Z,19.80
2017-06-12T12:37:31.226Z,19.90
2017-06-12T12:39:59.346Z,20.10
2017-06-12T12:42:27.572Z,20.10
2017-06-12T12:44:55.682Z,20.20
2017-06-12T12:47:23.847Z,20.00
2017-06-12T12:49:52.070Z,19.60
2017-06-12T12:52:20.212Z,19.10
2017-06-12T12:54:48.370Z,18.80
2017-06-12T12:57:16.484Z,18.60
2017-06-12T12:59:44.677Z,18.40
2017-06-12T13:02:12.805Z,18.20
2017-06-12T13:04:40.938Z,18.30
2017-06-12T13:07:09.127Z,18.40
2017-06-12T13:09:37.249Z,18.50
2017-06-12T13:12:06.324Z,18.40
2017-06-12T13:14:34.522Z,17.80
2017-06-12T13:17:02.655Z,17.20
2017-06-12T13:19:30.820Z,16.70
2017-06-12T13:21:59.154Z,16.40
2017-06-12T13:24:27.329Z,16.20
2017-06-12T13:26:55.491Z,16.00
2017-06-12T13:29:23.713Z,16.00
2017-06-12T13:31:51.849Z,15.90
2017-06-12T13:34:20.038Z,15.90
2017-06-12T13:36:48.162Z,16.00
2017-06-12T13:39:19.548Z,16.10
2017-06-12T13:41:53.333Z,16.10
2017-06-12T13:44:21.510Z,16.20
2017-06-12T13:46:49.630Z,16.40
2017-06-12T13:49:17.740Z,16.60
2017-06-12T13:51:45.899Z,16.70
2017-06-12T13:54:14.130Z,16.70
2017-06-12T13:56:42.216Z,16.70
2017-06-12T13:59:10.366Z,16.60
2017-06-12T14:01:38.775Z,16.50
2017-06-12T14:04:06.884Z,16.50
2017-06-12T14:06:35.102Z,16.60
2017-06-12T14:09:03.258Z,16.60
2017-06-12T14:11:31.347Z,16.80
2017-06-12T14:13:59.594Z,17.00
2017-06-12T14:16:27.782Z,17.10
2017-06-12T14:18:55.940Z,17.20
2017-06-12T14:21:25.035Z,17.30
2017-06-12T14:23:53.156Z,17.50
2017-06-12T14:26:22.111Z,17.70
2017-06-12T14:28:50.332Z,17.80
2017-06-12T14:31:18.481Z,18.00
2017-06-12T14:33:46.748Z,18.10
2017-06-12T14:36:14.933Z,18.10
2017-06-12T14:38:43.086Z,18.30
2017-06-12T14:41:11.623Z,18.20
2017-06-12T14:43:39.758Z,18.20
2017-06-12T14:46:07.907Z,18.20
2017-06-12T14:48:36.098Z,18.30
2017-06-12T14:51:04.253Z,18.40
2017-06-12T14:53:32.364Z,18.60
2017-06-12T14:56:01.498Z,18.70
2017-06-12T14:58:29.693Z,18.60
2017-06-12T15:00:58.015Z,18.50
2017-06-12T15:03:26.135Z,18.40
2017-06-12T15:05:56.299Z,18.30
2017-06-12T15:08:25.324Z,18.10
2017-06-12T15:10:53.585Z,17.80
2017-06-12T15:13:22.685Z,17.70
2017-06-12T15:15:59.495Z,17.60
2017-06-12T15:18:28.559Z,17.60
2017-06-12T15:21:08.718Z,17.70
2017-06-12T15:23:37.757Z,17.80
2017-06-12T15:26:07.892Z,18.10
2017-06-12T15:28:36.047Z,18.10
2017-06-12T15:31:04.826Z,17.90
2017-06-12T15:33:32.999Z,17.80
2017-06-12T15:36:01.159Z,17.60
2017-06-12T15:38:29.314Z,17.50
2017-06-12T15:40:57.433Z,17.40
2017-06-12T15:43:25.773Z,17.30
2017-06-12T15:45:54.056Z,17.20
2017-06-12T15:48:23.178Z,17.10
2017-06-12T15:50:51.567Z,17.10
2017-06-12T15:53:19.703Z,17.20
2017-06-12T15:55:47.831Z,17.40
2017-06-12T15:58:16.058Z,17.80
2017-06-12T16:00:44.248Z,17.90
2017-06-12T16:03:15.291Z,17.80
2017-06-12T16:05:43.412Z,17.80
2017-06-12T16:08:12.330Z,17.80
2017-06-12T16:10:40.511Z,17.90
2017-06-12T16:13:08.734Z,17.80
2017-06-12T16:15:37.174Z,17.80
2017-06-12T16:18:05.391Z,17.90
2017-06-12T16:20:33.528Z,17.80
2017-06-12T16:23:01.731Z,17.70
2017-06-12T16:25:30.791Z,17.70
2017-06-12T16:27:59.899Z,17.70
2017-06-12T16:30:30.342Z,17.60
2017-06-12T16:32:58.465Z,17.60
2017-06-12T16:35:26.634Z,17.50
2017-06-12T16:37:54.787Z,17.50
2017-06-12T16:40:23.895Z,17.50
2017-06-12T16:42:51.983Z,17.50
2017-06-12T16:45:20.256Z,17.60
2017-06-12T16:47:49.339Z,17.60
2017-06-12T16:50:17.498Z,17.50
2017-06-12T16:52:45.650Z,17.50
2017-06-12T16:55:13.806Z,17.50
2017-06-12T16:57:41.938Z,17.40
2017-06-12T17:00:10.083Z,17.30
2017-06-12T17:02:38.560Z,17.20
2017-06-12T17:05:09.755Z,17.10
2017-06-12T17:07:37.897Z,17.10
2017-06-12T17:10:06.298Z,17.00
2017-06-12T17:12:34.533Z,17.00
2017-06-12T17:15:02.638Z,16.90
2017-06-12T17:17:30.908Z,16.90
2017-06-12T17:19:59.421Z,16.80
2017-06-12T17:22:27.555Z,16.70
2017-06-12T17:24:55.736Z,16.70
2017-06-12T17:27:27.952Z,16.70
2017-06-12T17:29:58.182Z,16.70
2017-06-12T17:32:28.218Z,16.70
2017-06-12T17:34:56.316Z,16.70
2017-06-12T17:37:24.442Z,16.70
2017-06-12T17:39:54.765Z,16.60
2017-06-12T17:42:29.909Z,16.70
2017-06-12T17:44:58.119Z,16.80
2017-06-12T17:47:26.235Z,16.70
2017-06-12T17:49:54.376Z,16.70
2017-06-12T17:52:22.474Z,16.60
2017-06-12T17:54:50.824Z,16.60
2017-06-12T17:57:18.955Z,16.60
2017-06-12T17:59:47.086Z,16.50
2017-06-12T18:02:15.222Z,16.40
2017-06-12T18:04:45.391Z,16.30
2017-06-12T18:07:13.598Z,16.30
2017-06-12T18:09:46.543Z,16.20
2017-06-12T18:12:20.188Z,16.10
2017-06-12T18:14:48.359Z,16.10
2017-06-12T18:17:16.498Z,16.00
2017-06-12T18:19:44.598Z,16.00
2017-06-12T18:22:12.861Z,15.90
2017-06-12T18:24:40.984Z,15.90
2017-06-12T18:27:09.156Z,15.90
2017-06-12T18:29:37.309Z,15.80
2017-06-12T18:32:05.522Z,15.80
2017-06-12T18:34:33.650Z,15.70
2017-06-12T18:37:01.798Z,15.70
2017-06-12T18:39:49.234Z,15.70
2017-06-12T18:42:23.450Z,15.60
2017-06-12T18:44:51.641Z,15.60
2017-06-12T18:47:19.817Z,15.60
2017-06-12T18:49:48.036Z,15.50
2017-06-12T18:52:16.197Z,15.50
2017-06-12T18:54:44.459Z,15.50
2017-06-12T18:57:12.688Z,15.50
2017-06-12T18:59:40.825Z,15.50
2017-06-12T19:02:21.291Z,15.50
2017-06-12T19:04:49.473Z,15.50
2017-06-12T19:07:17.630Z,15.50
2017-06-12T19:09:45.853Z,15.50
2017-06-12T19:12:19.785Z,15.50
2017-06-12T19:14:48.475Z,15.50
2017-06-12T19:17:17.239Z,15.50
2017-06-12T19:19:45.494Z,15.50
2017-06-12T19:22:23.672Z,15.40
2017-06-12T19:24:51.950Z,15.30
2017-06-12T19:27:21.674Z,15.20
2017-06-12T19:29:51.728Z,15.10
2017-06-12T19:32:22.921Z,15.00
2017-06-12T19:34:51.896Z,14.90
2017-06-12T19:37:20.108Z,15.00
2017-06-12T19:45:24.402Z,15.00
2017-06-12T19:47:52.598Z,15.10
2017-06-12T19:50:21.219Z,15.10
2017-06-12T19:52:49.496Z,15.10
2017-06-12T19:55:18.541Z,15.20
2017-06-12T19:57:46.734Z,15.20
2017-06-12T20:03:16.387Z,15.20
2017-06-12T20:05:44.665Z,15.20
2017-06-12T20:11:13.395Z,15.30
2017-06-12T20:13:41.490Z,15.30
2017-06-12T20:16:09.600Z,15.30
2017-06-12T20:18:38.407Z,15.20
2017-06-12T20:21:08.566Z,15.20
2017-06-12T20:23:36.732Z,15.20
2017-06-12T20:26:07.510Z,15.10
2017-06-12T20:28:36.394Z,15.10
2017-06-12T20:31:04.516Z,15.10
2017-06-12T20:33:33.667Z,15.10
2017-06-12T20:36:01.832Z,15.10
2017-06-12T20:38:29.978Z,15.00
2017-06-12T20:40:58.097Z,14.90
2017-06-12T20:43:26.211Z,14.80
2017-06-12T20:45:54.345Z,14.80
2017-06-12T20:48:22.565Z,14.70
2017-06-12T20:50:55.820Z,14.70
2017-06-12T20:53:23.955Z,14.60
2017-06-12T20:55:58.717Z,14.60
2017-06-12T20:58:38.155Z,14.60
2017-06-12T21:01:19.516Z,14.60
2017-06-12T21:03:47.794Z,14.60
2017-06-12T21:06:15.928Z,14.60
2017-06-12T21:08:44.098Z,14.60
2017-06-12T21:11:15.507Z,14.60
2017-06-12T21:13:43.669Z,14.60
2017-06-12T21:16:12.039Z,14.60
2017-06-12T21:18:52.528Z,14.60
2017-06-12T21:21:20.640Z,14.60
2017-06-12T21:23:48.771Z,14.60
2017-06-12T21:26:16.928Z,14.60
2017-06-12T21:28:47.101Z,14.60
2017-06-12T21:31:15.321Z,14.60
2017-06-12T21:33:51.619Z,14.60
2017-06-12T21:36:19.736Z,14.60
2017-06-12T21:38:49.865Z,14.60
2017-06-12T21:41:18.578Z,14.60
2017-06-12T21:43:46.796Z,14.60
2017-06-12T21:46:14.970Z,14.60
2017-06-12T21:48:43.061Z,14.70
2017-06-12T21:51:11.390Z,14.70
2017-06-12T21:53:39.504Z,14.70
2017-06-12T21:56:07.690Z,14.70
2017-06-12T21:58:35.875Z,14.70
2017-06-12T22:01:11.562Z,14.70
2017-06-12T22:03:39.811Z,14.80
2017-06-12T22:06:08.768Z,14.80
2017-06-12T22:08:36.952Z,14.80
2017-06-12T22:11:05.671Z,14.70
2017-06-12T22:13:33.814Z,14.70
2017-06-12T22:16:01.991Z,14.80
2017-06-12T22:18:30.134Z,14.80
2017-06-12T22:20:58.261Z,14.70
2017-06-12T22:23:38.796Z,14.70
2017-06-12T22:26:06.927Z,14.70
2017-06-12T22:28:36.894Z,14.70
2017-06-12T22:31:08.646Z,14.70
2017-06-12T22:33:36.795Z,14.70
2017-06-12T22:36:04.917Z,14.70
2017-06-12T22:38:33.059Z,14.70
2017-06-12T22:41:01.707Z,14.70
2017-06-12T22:43:29.836Z,14.80
2017-06-12T22:45:57.993Z,14.70
2017-06-12T22:48:26.130Z,14.70
2017-06-12T22:50:54.318Z,14.70
2017-06-12T22:53:31.342Z,14.70
2017-06-12T22:56:00.017Z,14.70
2017-06-12T22:58:28.128Z,14.70
2017-06-12T23:00:56.300Z,14.70
2017-06-12T23:03:35.123Z,14.70
2017-06-12T23:06:03.414Z,14.70
2017-06-12T23:08:31.565Z,14.70
2017-06-12T23:10:59.826Z,14.70
2017-06-12T23:13:27.941Z,14.70
2017-06-12T23:15:56.111Z,14.70
2017-06-12T23:18:24.212Z,14.70
2017-06-12T23:20:53.262Z,14.70
2017-06-12T23:23:21.431Z,14.70
2017-06-12T23:25:55.488Z,14.60
2017-06-12T23:28:28.919Z,14.60
2017-06-12T23:30:57.040Z,14.60
2017-06-12T23:33:28.533Z,14.60
2017-06-12T23:35:56.764Z,14.70
2017-06-12T23:38:24.971Z,14.70
2017-06-12T23:40:53.409Z,14.70
2017-06-12T23:43:21.672Z,14.70
2017-06-12T23:45:49.855Z,14.70
2017-06-12T23:48:18.036Z,14.70
2017-06-12T23:50:46.133Z,14.70
2017-06-12T23:53:14.324Z,14.80
2017-06-12T23:55:42.453Z,14.70
2017-06-12T23:58:10.607Z,14.80
